This is the latest recevied weather packets stored in our database for station/object DL6ABE-13. If no packets are shown the sender has not sent any weather packets the latest 10 day(s).
| Time | Temp. | Humidity | Pressure | Rain* | Wind** | Luminosity | Snow |
|---|---|---|---|---|---|---|---|
| 1776976127 | 12.22° C | 53% | 1019.5 hPa | - | - | - | - |
| 1776975503 | 12.78° C | 53% | 1019.5 hPa | - | - | - | - |
| 1776974901 | 12.78° C | 52% | 1019.5 hPa | - | - | - | - |
| 1776973118 | 13.89° C | 48% | 1019.5 hPa | - | - | - | - |
| 1776970688 | 16.11° C | 42% | 1019.4 hPa | - | - | - | - |
| 1776964086 | 19.44° C | 36% | 1019.4 hPa | - | - | - | - |
| 1776949038 | 18.89° C | 40% | 1021.8 hPa | - | - | - | - |
| 1776946607 | 18.33° C | 42% | 1021.9 hPa | - | - | - | - |
| 1776946006 | 18.33° C | 43% | 1022 hPa | - | - | - | - |
| 1776945404 | 18.33° C | 44% | 1022.1 hPa | - | - | - | - |
| 1776944199 | 17.78° C | 45% | 1022.2 hPa | - | - | - | - |
| 1776942996 | 17.78° C | 46% | 1022.5 hPa | - | - | - | - |
| 1776942394 | 17.22° C | 46% | 1022.6 hPa | - | - | - | - |
| 1776938180 | 15.56° C | 54% | 1023 hPa | - | - | - | - |
| 1776935170 | 13.33° C | 63% | 1023.4 hPa | - | - | - | - |
| 1776927944 | 8.33° C | 75% | 1023.5 hPa | - | - | - | - |
| 1776915904 | 5° C | 78% | 1022 hPa | - | - | - | - |
| 1776913497 | 5.56° C | 76% | 1022 hPa | - | - | - | - |
| 1776911690 | 6.11° C | 75% | 1022 hPa | - | - | - | - |
| 1776911110 | 6.11° C | 75% | 1022 hPa | - | - | - | - |
| 1776908078 | 6.11° C | 75% | 1021.9 hPa | - | - | - | - |
| 1776905671 | 6.11° C | 73% | 1021.4 hPa | - | - | - | - |
* Rain since midnight (hover to see other rain measurements)
** Current wind speed in m/s (hover to see current wind gust speed)